Redding, CA

6:02 AM PDT on August 22, 2014 (GMT -0700)
west redding | Change Station
CLOSE
Current Station
Personal Weather Station
Location: Redding, CA
Elevation: 747 ft
Nearby Weather Stations

Elev 747 ft 40.56 °N, 122.42 °W | Updated 2 minutes ago

Clear
Clear
65.5 °F
Feels Like 65.5 °F
N
2.0
Wind Variable Wind from East
Gusts 2.0 mph

Today
High -- | Low -- °F
--% Chance of Precip.
Yesterday
High -- | Low -- °F
Precip. -- in
6:27 AM 7:57 PM
Waning Crescent, 8% visible
Pressure 29.85 in
Visibility 10.0 miles
Clouds Clear
Dew Point 45 °F
Humidity 48%
Rainfall 0.00 in
Snow Depth Not available.
UV 0 out of 12
Pollen 7.80 out of 12
Air Quality Not available.
Flu Activity Not available.
METAR KRDD 221253Z AUTO 00000KT 10SM CLR 19/12 A2986 RMK AO2 SLP107 T01890122

More Conditions Fewer Conditions

Pressure 29.85 in
Visibility 10.0 miles
Clouds Clear
Dew Point 45 °F
Humidity 48%
Rainfall 0.00 in
Snow Depth Not available.
UV 0 out of 12
Pollen 7.80 out of 12
Air Quality Not available.
Flu Activity Not available.
METAR KRDD 221253Z AUTO 00000KT 10SM CLR 19/12 A2986 RMK AO2 SLP107 T01890122

More Conditions Fewer Conditions

10-Day Weather Forecast

Almanac

Astronomy

Aug. 22, 2014 Rise Set
Actual Time 6:27 AM PDT 7:57 PM PDT
Civil Twilight 5:58 AM PDT 8:25 PM PDT
Nautical Twilight 5:23 AM PDT 9:00 PM PDT
Astronomical Twilight 4:47 AM PDT 9:36 PM PDT
Moon 3:54 AM PDT 6:09 PM PDT
Length of Visible Light 14h 27m
Length of Day
13h 29m
Tomorrow will be 2m 29s shorter.
Waning Crescent, 8% of the Moon is Illuminated
Today
Waning Crescent
Aug 25
New
Sep 2
First Quarter
Sep 8
Full
Sep 15
Last Quarter

Today's Extremes

State Highs State Lows

Community

WunderPhotos

Upload Photos

1,746,160 photos uploaded!

WunderBlogs® & News

Nearby

Snow Depth

Station Depth Elevation
Adin Mountain 1 in 6200 ft
Crowder Flat 0 in 5100 ft
Cedar Pass 1 in 7100 ft
Independence Creek 0 in 6500 ft
Independence Camp 0 in 7000 ft

Earthquake Activity

City Distance Mag. Time & Date
No recent earthquake activity has been reported nearby.
Minimum magnitude displayed is 2.5.

Coastal Water Temperatures

Place Temperature
No Stations Reporting

Nearby Weather Stations